sensor_id;sensor_type;location;lat;lon;timestamp;P1;durP1;ratioP1;P2;durP2;ratioP2
84101;SDS011;74198;51.618;8.334;2024-03-22T00:01:11;29.15;;;12.40;;
84101;SDS011;74198;51.618;8.334;2024-03-22T00:03:37;31.30;;;13.45;;
84101;SDS011;74198;51.618;8.334;2024-03-22T00:06:03;29.05;;;11.63;;
84101;SDS011;74198;51.618;8.334;2024-03-22T00:08:29;29.23;;;11.25;;
84101;SDS011;74198;51.618;8.334;2024-03-22T00:10:55;28.55;;;11.38;;
84101;SDS011;74198;51.618;8.334;2024-03-22T00:13:21;32.70;;;13.57;;
84101;SDS011;74198;51.618;8.334;2024-03-22T00:15:47;29.98;;;12.30;;
84101;SDS011;74198;51.618;8.334;2024-03-22T00:18:13;34.83;;;13.15;;
84101;SDS011;74198;51.618;8.334;2024-03-22T00:20:39;32.17;;;14.30;;
84101;SDS011;74198;51.618;8.334;2024-03-22T00:23:05;32.15;;;13.27;;
84101;SDS011;74198;51.618;8.334;2024-03-22T00:25:31;32.13;;;14.32;;
84101;SDS011;74198;51.618;8.334;2024-03-22T00:27:57;34.85;;;14.25;;
84101;SDS011;74198;51.618;8.334;2024-03-22T00:30:23;30.85;;;12.80;;
84101;SDS011;74198;51.618;8.334;2024-03-22T00:32:49;33.25;;;15.27;;
84101;SDS011;74198;51.618;8.334;2024-03-22T00:35:15;35.70;;;14.90;;
84101;SDS011;74198;51.618;8.334;2024-03-22T00:37:41;33.10;;;14.07;;
84101;SDS011;74198;51.618;8.334;2024-03-22T00:40:07;28.95;;;12.07;;
84101;SDS011;74198;51.618;8.334;2024-03-22T00:42:33;30.70;;;12.38;;
84101;SDS011;74198;51.618;8.334;2024-03-22T00:44:59;32.85;;;14.38;;
84101;SDS011;74198;51.618;8.334;2024-03-22T00:47:25;36.08;;;14.52;;
84101;SDS011;74198;51.618;8.334;2024-03-22T00:49:51;34.55;;;12.70;;
84101;SDS011;74198;51.618;8.334;2024-03-22T00:52:17;35.10;;;14.55;;
84101;SDS011;74198;51.618;8.334;2024-03-22T00:54:43;32.13;;;15.07;;
84101;SDS011;74198;51.618;8.334;2024-03-22T00:57:09;37.20;;;14.93;;
84101;SDS011;74198;51.618;8.334;2024-03-22T00:59:35;30.58;;;13.27;;
84101;SDS011;74198;51.618;8.334;2024-03-22T01:02:01;31.92;;;12.88;;
84101;SDS011;74198;51.618;8.334;2024-03-22T01:04:27;35.95;;;14.65;;
84101;SDS011;74198;51.618;8.334;2024-03-22T01:06:53;30.50;;;12.65;;
84101;SDS011;74198;51.618;8.334;2024-03-22T01:09:19;27.30;;;11.95;;
84101;SDS011;74198;51.618;8.334;2024-03-22T01:11:45;31.77;;;13.27;;
84101;SDS011;74198;51.618;8.334;2024-03-22T01:14:11;32.78;;;12.88;;
84101;SDS011;74198;51.618;8.334;2024-03-22T01:16:36;27.90;;;11.93;;
84101;SDS011;74198;51.618;8.334;2024-03-22T01:19:03;29.83;;;11.85;;
84101;SDS011;74198;51.618;8.334;2024-03-22T01:21:28;27.83;;;13.18;;
84101;SDS011;74198;51.618;8.334;2024-03-22T01:23:54;37.63;;;15.60;;
84101;SDS011;74198;51.618;8.334;2024-03-22T01:26:20;33.50;;;12.75;;
84101;SDS011;74198;51.618;8.334;2024-03-22T01:28:46;35.08;;;15.05;;
84101;SDS011;74198;51.618;8.334;2024-03-22T01:31:12;25.48;;;11.15;;
84101;SDS011;74198;51.618;8.334;2024-03-22T01:33:38;34.35;;;13.27;;
84101;SDS011;74198;51.618;8.334;2024-03-22T01:36:04;29.50;;;13.20;;
84101;SDS011;74198;51.618;8.334;2024-03-22T01:38:31;30.65;;;12.45;;
84101;SDS011;74198;51.618;8.334;2024-03-22T01:40:57;31.42;;;13.43;;
84101;SDS011;74198;51.618;8.334;2024-03-22T01:43:23;28.92;;;11.68;;
84101;SDS011;74198;51.618;8.334;2024-03-22T01:45:49;29.17;;;13.27;;
84101;SDS011;74198;51.618;8.334;2024-03-22T01:48:15;23.85;;;9.95;;
84101;SDS011;74198;51.618;8.334;2024-03-22T01:50:41;26.70;;;11.50;;
84101;SDS011;74198;51.618;8.334;2024-03-22T01:53:08;26.45;;;11.55;;
84101;SDS011;74198;51.618;8.334;2024-03-22T01:55:34;26.67;;;10.23;;
84101;SDS011;74198;51.618;8.334;2024-03-22T01:58:00;25.67;;;10.70;;
84101;SDS011;74198;51.618;8.334;2024-03-22T02:00:28;29.52;;;11.35;;
84101;SDS011;74198;51.618;8.334;2024-03-22T02:02:55;19.65;;;7.57;;
84101;SDS011;74198;51.618;8.334;2024-03-22T02:05:21;29.10;;;10.85;;
84101;SDS011;74198;51.618;8.334;2024-03-22T02:07:49;26.70;;;11.35;;
84101;SDS011;74198;51.618;8.334;2024-03-22T02:10:15;24.40;;;10.85;;
84101;SDS011;74198;51.618;8.334;2024-03-22T02:12:41;22.02;;;8.98;;
84101;SDS011;74198;51.618;8.334;2024-03-22T02:15:07;18.52;;;9.35;;
84101;SDS011;74198;51.618;8.334;2024-03-22T02:17:34;27.33;;;9.57;;
84101;SDS011;74198;51.618;8.334;2024-03-22T02:20:00;25.75;;;10.55;;
84101;SDS011;74198;51.618;8.334;2024-03-22T02:22:27;20.10;;;8.60;;
84101;SDS011;74198;51.618;8.334;2024-03-22T02:24:53;26.27;;;10.68;;
84101;SDS011;74198;51.618;8.334;2024-03-22T02:27:19;25.35;;;11.43;;
84101;SDS011;74198;51.618;8.334;2024-03-22T02:29:45;26.77;;;12.25;;
84101;SDS011;74198;51.618;8.334;2024-03-22T02:32:11;14.15;;;6.80;;
84101;SDS011;74198;51.618;8.334;2024-03-22T02:34:37;27.58;;;11.27;;
84101;SDS011;74198;51.618;8.334;2024-03-22T02:37:03;25.00;;;9.90;;
84101;SDS011;74198;51.618;8.334;2024-03-22T02:39:29;18.27;;;6.63;;
84101;SDS011;74198;51.618;8.334;2024-03-22T02:41:55;24.80;;;9.57;;
84101;SDS011;74198;51.618;8.334;2024-03-22T02:44:21;16.67;;;6.43;;
84101;SDS011;74198;51.618;8.334;2024-03-22T02:46:47;16.85;;;7.00;;
84101;SDS011;74198;51.618;8.334;2024-03-22T02:49:13;17.60;;;7.63;;
84101;SDS011;74198;51.618;8.334;2024-03-22T02:51:39;28.23;;;11.05;;
84101;SDS011;74198;51.618;8.334;2024-03-22T02:54:05;22.63;;;10.40;;
84101;SDS011;74198;51.618;8.334;2024-03-22T02:56:31;26.00;;;10.82;;
84101;SDS011;74198;51.618;8.334;2024-03-22T02:58:57;23.15;;;9.70;;
84101;SDS011;74198;51.618;8.334;2024-03-22T03:01:23;28.60;;;10.45;;
84101;SDS011;74198;51.618;8.334;2024-03-22T03:03:49;23.13;;;9.13;;
84101;SDS011;74198;51.618;8.334;2024-03-22T03:06:15;21.05;;;7.35;;
84101;SDS011;74198;51.618;8.334;2024-03-22T03:08:43;18.55;;;9.43;;
84101;SDS011;74198;51.618;8.334;2024-03-22T03:11:09;21.88;;;9.25;;
84101;SDS011;74198;51.618;8.334;2024-03-22T03:13:35;25.13;;;11.57;;
84101;SDS011;74198;51.618;8.334;2024-03-22T03:16:01;21.08;;;8.60;;
84101;SDS011;74198;51.618;8.334;2024-03-22T03:18:27;16.65;;;6.13;;
84101;SDS011;74198;51.618;8.334;2024-03-22T03:20:53;21.67;;;10.25;;
84101;SDS011;74198;51.618;8.334;2024-03-22T03:23:18;24.73;;;10.70;;
84101;SDS011;74198;51.618;8.334;2024-03-22T03:25:45;23.15;;;10.55;;
84101;SDS011;74198;51.618;8.334;2024-03-22T03:28:11;24.50;;;10.13;;
84101;SDS011;74198;51.618;8.334;2024-03-22T03:30:38;15.63;;;7.13;;
84101;SDS011;74198;51.618;8.334;2024-03-22T03:33:04;18.50;;;7.60;;
84101;SDS011;74198;51.618;8.334;2024-03-22T03:35:30;21.83;;;8.00;;
84101;SDS011;74198;51.618;8.334;2024-03-22T03:37:56;21.90;;;8.43;;
84101;SDS011;74198;51.618;8.334;2024-03-22T03:40:22;17.10;;;7.47;;
84101;SDS011;74198;51.618;8.334;2024-03-22T03:42:52;22.10;;;9.90;;
84101;SDS011;74198;51.618;8.334;2024-03-22T03:45:18;24.42;;;9.45;;
84101;SDS011;74198;51.618;8.334;2024-03-22T03:47:44;17.75;;;7.78;;
84101;SDS011;74198;51.618;8.334;2024-03-22T03:50:11;24.67;;;9.43;;
84101;SDS011;74198;51.618;8.334;2024-03-22T03:52:37;13.63;;;6.13;;
84101;SDS011;74198;51.618;8.334;2024-03-22T03:55:03;24.20;;;6.85;;
84101;SDS011;74198;51.618;8.334;2024-03-22T03:57:29;18.75;;;9.23;;
84101;SDS011;74198;51.618;8.334;2024-03-22T03:59:55;21.05;;;8.20;;
84101;SDS011;74198;51.618;8.334;2024-03-22T04:02:21;18.58;;;8.30;;
84101;SDS011;74198;51.618;8.334;2024-03-22T04:04:47;21.27;;;9.40;;
84101;SDS011;74198;51.618;8.334;2024-03-22T04:07:13;18.88;;;8.45;;
84101;SDS011;74198;51.618;8.334;2024-03-22T04:09:39;21.63;;;8.25;;
84101;SDS011;74198;51.618;8.334;2024-03-22T04:12:05;20.20;;;8.48;;
84101;SDS011;74198;51.618;8.334;2024-03-22T04:14:31;21.52;;;8.57;;
84101;SDS011;74198;51.618;8.334;2024-03-22T04:16:57;20.50;;;8.60;;
84101;SDS011;74198;51.618;8.334;2024-03-22T04:19:23;19.40;;;8.23;;
84101;SDS011;74198;51.618;8.334;2024-03-22T04:21:49;17.75;;;8.30;;
84101;SDS011;74198;51.618;8.334;2024-03-22T04:24:15;13.75;;;6.47;;
84101;SDS011;74198;51.618;8.334;2024-03-22T04:26:41;19.67;;;8.43;;
84101;SDS011;74198;51.618;8.334;2024-03-22T04:29:07;19.00;;;8.38;;
84101;SDS011;74198;51.618;8.334;2024-03-22T04:31:33;10.98;;;5.25;;
84101;SDS011;74198;51.618;8.334;2024-03-22T04:33:59;7.32;;;3.47;;
84101;SDS011;74198;51.618;8.334;2024-03-22T04:36:25;16.27;;;7.05;;
84101;SDS011;74198;51.618;8.334;2024-03-22T04:38:51;19.17;;;9.02;;
84101;SDS011;74198;51.618;8.334;2024-03-22T04:41:17;20.77;;;8.98;;
84101;SDS011;74198;51.618;8.334;2024-03-22T04:43:43;14.02;;;5.75;;
84101;SDS011;74198;51.618;8.334;2024-03-22T04:46:09;18.13;;;7.80;;
84101;SDS011;74198;51.618;8.334;2024-03-22T04:48:35;13.38;;;5.82;;
84101;SDS011;74198;51.618;8.334;2024-03-22T04:51:01;21.08;;;8.95;;
84101;SDS011;74198;51.618;8.334;2024-03-22T04:53:27;17.73;;;7.85;;
84101;SDS011;74198;51.618;8.334;2024-03-22T04:55:53;18.27;;;6.20;;
84101;SDS011;74198;51.618;8.334;2024-03-22T04:58:20;13.02;;;5.07;;
84101;SDS011;74198;51.618;8.334;2024-03-22T05:00:47;13.40;;;5.78;;
84101;SDS011;74198;51.618;8.334;2024-03-22T05:03:13;14.20;;;5.13;;
84101;SDS011;74198;51.618;8.334;2024-03-22T05:05:39;17.52;;;7.82;;
84101;SDS011;74198;51.618;8.334;2024-03-22T05:08:06;18.73;;;7.03;;
84101;SDS011;74198;51.618;8.334;2024-03-22T05:10:32;12.98;;;5.10;;
84101;SDS011;74198;51.618;8.334;2024-03-22T05:12:58;19.30;;;8.40;;
84101;SDS011;74198;51.618;8.334;2024-03-22T05:15:24;17.85;;;7.20;;
84101;SDS011;74198;51.618;8.334;2024-03-22T05:17:50;15.30;;;6.00;;
84101;SDS011;74198;51.618;8.334;2024-03-22T05:20:17;18.38;;;8.73;;
84101;SDS011;74198;51.618;8.334;2024-03-22T05:22:43;20.17;;;8.63;;
84101;SDS011;74198;51.618;8.334;2024-03-22T05:25:09;18.25;;;8.50;;
84101;SDS011;74198;51.618;8.334;2024-03-22T05:27:35;17.20;;;9.05;;
84101;SDS011;74198;51.618;8.334;2024-03-22T05:30:01;14.23;;;5.85;;
84101;SDS011;74198;51.618;8.334;2024-03-22T05:32:29;16.85;;;7.00;;
84101;SDS011;74198;51.618;8.334;2024-03-22T05:34:55;14.85;;;5.93;;
84101;SDS011;74198;51.618;8.334;2024-03-22T05:37:21;19.58;;;8.40;;
84101;SDS011;74198;51.618;8.334;2024-03-22T05:39:48;22.00;;;9.70;;
84101;SDS011;74198;51.618;8.334;2024-03-22T05:42:14;20.98;;;9.10;;
84101;SDS011;74198;51.618;8.334;2024-03-22T05:44:40;20.10;;;8.02;;
84101;SDS011;74198;51.618;8.334;2024-03-22T05:47:06;22.15;;;9.45;;
84101;SDS011;74198;51.618;8.334;2024-03-22T05:49:32;14.63;;;5.75;;
84101;SDS011;74198;51.618;8.334;2024-03-22T05:51:59;21.45;;;9.57;;
84101;SDS011;74198;51.618;8.334;2024-03-22T05:54:25;20.08;;;8.35;;
84101;SDS011;74198;51.618;8.334;2024-03-22T05:56:51;18.88;;;7.97;;
84101;SDS011;74198;51.618;8.334;2024-03-22T05:59:17;25.40;;;9.23;;
84101;SDS011;74198;51.618;8.334;2024-03-22T06:01:43;20.15;;;9.43;;
84101;SDS011;74198;51.618;8.334;2024-03-22T06:04:09;20.65;;;8.60;;
84101;SDS011;74198;51.618;8.334;2024-03-22T06:06:35;18.92;;;7.35;;
84101;SDS011;74198;51.618;8.334;2024-03-22T06:09:01;18.77;;;7.90;;
84101;SDS011;74198;51.618;8.334;2024-03-22T06:11:29;17.73;;;7.68;;
84101;SDS011;74198;51.618;8.334;2024-03-22T06:13:55;21.10;;;8.48;;
84101;SDS011;74198;51.618;8.334;2024-03-22T06:16:22;22.02;;;9.50;;
84101;SDS011;74198;51.618;8.334;2024-03-22T06:18:48;18.35;;;9.23;;
84101;SDS011;74198;51.618;8.334;2024-03-22T06:21:14;14.63;;;7.85;;
84101;SDS011;74198;51.618;8.334;2024-03-22T06:23:40;18.38;;;7.53;;
84101;SDS011;74198;51.618;8.334;2024-03-22T06:26:06;25.83;;;10.82;;
84101;SDS011;74198;51.618;8.334;2024-03-22T06:28:33;19.25;;;8.68;;
84101;SDS011;74198;51.618;8.334;2024-03-22T06:30:59;26.20;;;9.32;;
84101;SDS011;74198;51.618;8.334;2024-03-22T06:33:25;17.33;;;8.45;;
84101;SDS011;74198;51.618;8.334;2024-03-22T06:35:50;18.58;;;8.27;;
84101;SDS011;74198;51.618;8.334;2024-03-22T06:38:16;21.27;;;8.60;;
84101;SDS011;74198;51.618;8.334;2024-03-22T06:40:43;17.38;;;8.52;;
84101;SDS011;74198;51.618;8.334;2024-03-22T06:43:09;16.70;;;8.25;;
84101;SDS011;74198;51.618;8.334;2024-03-22T06:45:35;16.23;;;7.60;;
84101;SDS011;74198;51.618;8.334;2024-03-22T06:48:01;17.15;;;8.70;;
84101;SDS011;74198;51.618;8.334;2024-03-22T06:50:27;14.60;;;7.53;;
84101;SDS011;74198;51.618;8.334;2024-03-22T06:52:53;20.20;;;9.38;;
84101;SDS011;74198;51.618;8.334;2024-03-22T06:55:20;8.40;;;4.95;;
84101;SDS011;74198;51.618;8.334;2024-03-22T06:57:47;16.88;;;7.65;;
84101;SDS011;74198;51.618;8.334;2024-03-22T07:00:13;13.38;;;6.13;;
84101;SDS011;74198;51.618;8.334;2024-03-22T07:02:40;16.65;;;7.78;;
84101;SDS011;74198;51.618;8.334;2024-03-22T07:05:08;15.95;;;7.95;;
84101;SDS011;74198;51.618;8.334;2024-03-22T07:07:35;16.27;;;7.60;;
84101;SDS011;74198;51.618;8.334;2024-03-22T07:10:01;15.65;;;7.82;;
84101;SDS011;74198;51.618;8.334;2024-03-22T07:12:27;15.80;;;6.90;;
84101;SDS011;74198;51.618;8.334;2024-03-22T07:14:54;15.93;;;7.22;;
84101;SDS011;74198;51.618;8.334;2024-03-22T07:17:21;12.57;;;5.28;;
84101;SDS011;74198;51.618;8.334;2024-03-22T07:19:52;13.43;;;7.28;;
84101;SDS011;74198;51.618;8.334;2024-03-22T07:22:19;18.33;;;7.57;;
84101;SDS011;74198;51.618;8.334;2024-03-22T07:24:45;15.10;;;7.18;;
84101;SDS011;74198;51.618;8.334;2024-03-22T07:27:12;15.23;;;7.07;;
84101;SDS011;74198;51.618;8.334;2024-03-22T07:29:40;13.23;;;7.57;;
84101;SDS011;74198;51.618;8.334;2024-03-22T07:32:06;10.50;;;5.03;;
84101;SDS011;74198;51.618;8.334;2024-03-22T07:34:32;15.52;;;6.95;;
84101;SDS011;74198;51.618;8.334;2024-03-22T07:36:58;13.75;;;6.13;;
84101;SDS011;74198;51.618;8.334;2024-03-22T07:39:24;11.43;;;5.93;;
84101;SDS011;74198;51.618;8.334;2024-03-22T07:41:50;13.43;;;6.63;;
84101;SDS011;74198;51.618;8.334;2024-03-22T07:44:16;13.82;;;6.65;;
84101;SDS011;74198;51.618;8.334;2024-03-22T07:46:43;13.00;;;6.53;;
84101;SDS011;74198;51.618;8.334;2024-03-22T07:49:10;12.68;;;6.20;;
84101;SDS011;74198;51.618;8.334;2024-03-22T07:51:35;11.98;;;6.22;;
84101;SDS011;74198;51.618;8.334;2024-03-22T07:54:02;12.07;;;6.40;;
84101;SDS011;74198;51.618;8.334;2024-03-22T07:56:28;11.57;;;5.63;;
84101;SDS011;74198;51.618;8.334;2024-03-22T07:58:54;13.40;;;6.65;;
84101;SDS011;74198;51.618;8.334;2024-03-22T08:01:20;10.73;;;5.85;;
84101;SDS011;74198;51.618;8.334;2024-03-22T08:03:46;9.77;;;5.40;;
84101;SDS011;74198;51.618;8.334;2024-03-22T08:06:12;14.30;;;6.30;;
84101;SDS011;74198;51.618;8.334;2024-03-22T08:08:38;14.93;;;6.03;;
84101;SDS011;74198;51.618;8.334;2024-03-22T08:11:04;13.52;;;6.20;;
84101;SDS011;74198;51.618;8.334;2024-03-22T08:13:31;12.07;;;5.93;;
84101;SDS011;74198;51.618;8.334;2024-03-22T08:15:57;7.80;;;4.32;;
84101;SDS011;74198;51.618;8.334;2024-03-22T08:18:23;12.90;;;6.07;;
84101;SDS011;74198;51.618;8.334;2024-03-22T08:20:50;13.90;;;6.75;;
84101;SDS011;74198;51.618;8.334;2024-03-22T08:23:16;11.80;;;7.07;;
84101;SDS011;74198;51.618;8.334;2024-03-22T08:25:45;12.05;;;6.43;;
84101;SDS011;74198;51.618;8.334;2024-03-22T08:28:11;14.73;;;7.20;;
84101;SDS011;74198;51.618;8.334;2024-03-22T08:30:38;14.45;;;7.03;;
84101;SDS011;74198;51.618;8.334;2024-03-22T08:33:06;13.45;;;7.07;;
84101;SDS011;74198;51.618;8.334;2024-03-22T08:35:32;9.80;;;5.72;;
84101;SDS011;74198;51.618;8.334;2024-03-22T08:37:58;15.90;;;6.85;;
84101;SDS011;74198;51.618;8.334;2024-03-22T08:40:24;12.45;;;6.25;;
84101;SDS011;74198;51.618;8.334;2024-03-22T08:42:50;11.15;;;6.20;;
84101;SDS011;74198;51.618;8.334;2024-03-22T08:45:16;11.75;;;6.68;;
84101;SDS011;74198;51.618;8.334;2024-03-22T08:47:43;11.82;;;5.90;;
84101;SDS011;74198;51.618;8.334;2024-03-22T08:50:11;12.38;;;5.15;;
84101;SDS011;74198;51.618;8.334;2024-03-22T08:52:37;12.32;;;6.00;;
84101;SDS011;74198;51.618;8.334;2024-03-22T08:55:03;11.85;;;6.30;;
84101;SDS011;74198;51.618;8.334;2024-03-22T08:57:31;10.65;;;6.30;;
84101;SDS011;74198;51.618;8.334;2024-03-22T08:59:57;11.15;;;5.88;;
84101;SDS011;74198;51.618;8.334;2024-03-22T09:02:23;10.45;;;5.63;;
84101;SDS011;74198;51.618;8.334;2024-03-22T09:04:50;10.02;;;4.75;;
84101;SDS011;74198;51.618;8.334;2024-03-22T09:07:16;13.13;;;6.78;;
84101;SDS011;74198;51.618;8.334;2024-03-22T09:09:42;13.38;;;6.75;;
84101;SDS011;74198;51.618;8.334;2024-03-22T09:12:08;10.95;;;6.13;;
84101;SDS011;74198;51.618;8.334;2024-03-22T09:14:34;10.80;;;6.60;;
84101;SDS011;74198;51.618;8.334;2024-03-22T09:17:00;16.50;;;6.95;;
84101;SDS011;74198;51.618;8.334;2024-03-22T09:19:26;13.27;;;6.43;;
84101;SDS011;74198;51.618;8.334;2024-03-22T09:21:52;12.23;;;6.10;;
84101;SDS011;74198;51.618;8.334;2024-03-22T09:24:18;12.32;;;6.63;;
84101;SDS011;74198;51.618;8.334;2024-03-22T09:26:45;14.30;;;7.88;;
84101;SDS011;74198;51.618;8.334;2024-03-22T09:29:12;15.80;;;8.02;;
84101;SDS011;74198;51.618;8.334;2024-03-22T09:31:38;13.75;;;7.43;;
84101;SDS011;74198;51.618;8.334;2024-03-22T09:34:04;15.50;;;7.30;;
84101;SDS011;74198;51.618;8.334;2024-03-22T09:36:30;18.77;;;8.30;;
84101;SDS011;74198;51.618;8.334;2024-03-22T09:39:00;13.40;;;6.80;;
84101;SDS011;74198;51.618;8.334;2024-03-22T09:41:26;16.83;;;9.05;;
84101;SDS011;74198;51.618;8.334;2024-03-22T09:43:52;15.32;;;7.57;;
84101;SDS011;74198;51.618;8.334;2024-03-22T09:46:19;17.40;;;8.65;;
84101;SDS011;74198;51.618;8.334;2024-03-22T09:48:47;17.05;;;8.13;;
84101;SDS011;74198;51.618;8.334;2024-03-22T09:51:14;16.10;;;7.95;;
84101;SDS011;74198;51.618;8.334;2024-03-22T09:53:41;15.73;;;8.95;;
84101;SDS011;74198;51.618;8.334;2024-03-22T09:56:08;18.42;;;8.80;;
84101;SDS011;74198;51.618;8.334;2024-03-22T09:58:34;16.77;;;7.80;;
84101;SDS011;74198;51.618;8.334;2024-03-22T10:01:00;17.75;;;9.05;;
84101;SDS011;74198;51.618;8.334;2024-03-22T10:03:27;16.48;;;7.63;;
84101;SDS011;74198;51.618;8.334;2024-03-22T10:05:53;16.55;;;7.90;;
84101;SDS011;74198;51.618;8.334;2024-03-22T10:08:19;14.52;;;7.78;;
84101;SDS011;74198;51.618;8.334;2024-03-22T10:10:45;13.95;;;8.05;;
84101;SDS011;74198;51.618;8.334;2024-03-22T10:13:12;13.85;;;7.53;;
84101;SDS011;74198;51.618;8.334;2024-03-22T10:15:38;16.20;;;7.57;;
84101;SDS011;74198;51.618;8.334;2024-03-22T10:18:04;14.88;;;7.75;;
84101;SDS011;74198;51.618;8.334;2024-03-22T10:20:30;14.70;;;7.75;;
84101;SDS011;74198;51.618;8.334;2024-03-22T10:22:58;16.33;;;8.05;;
84101;SDS011;74198;51.618;8.334;2024-03-22T10:25:27;14.50;;;8.40;;
84101;SDS011;74198;51.618;8.334;2024-03-22T10:27:54;16.52;;;8.82;;
84101;SDS011;74198;51.618;8.334;2024-03-22T10:30:20;14.23;;;7.93;;
84101;SDS011;74198;51.618;8.334;2024-03-22T10:32:47;14.35;;;8.10;;
84101;SDS011;74198;51.618;8.334;2024-03-22T10:35:14;13.88;;;8.32;;
84101;SDS011;74198;51.618;8.334;2024-03-22T10:37:41;13.93;;;8.10;;
84101;SDS011;74198;51.618;8.334;2024-03-22T10:40:08;14.02;;;7.78;;
84101;SDS011;74198;51.618;8.334;2024-03-22T10:42:39;16.85;;;7.88;;
84101;SDS011;74198;51.618;8.334;2024-03-22T10:45:06;17.67;;;8.50;;
84101;SDS011;74198;51.618;8.334;2024-03-22T10:47:33;16.30;;;8.30;;
84101;SDS011;74198;51.618;8.334;2024-03-22T10:50:06;18.75;;;8.68;;
84101;SDS011;74198;51.618;8.334;2024-03-22T10:52:54;15.82;;;8.00;;
84101;SDS011;74198;51.618;8.334;2024-03-22T10:55:23;16.92;;;8.60;;
84101;SDS011;74198;51.618;8.334;2024-03-22T10:57:53;13.60;;;7.55;;
84101;SDS011;74198;51.618;8.334;2024-03-22T11:00:26;14.05;;;7.78;;
84101;SDS011;74198;51.618;8.334;2024-03-22T11:02:53;16.88;;;7.70;;
84101;SDS011;74198;51.618;8.334;2024-03-22T11:05:19;14.25;;;7.75;;
84101;SDS011;74198;51.618;8.334;2024-03-22T11:07:45;14.75;;;7.22;;
84101;SDS011;74198;51.618;8.334;2024-03-22T11:10:11;14.05;;;7.75;;
84101;SDS011;74198;51.618;8.334;2024-03-22T11:12:38;14.20;;;7.47;;
84101;SDS011;74198;51.618;8.334;2024-03-22T11:15:04;14.40;;;7.60;;
84101;SDS011;74198;51.618;8.334;2024-03-22T11:17:31;14.40;;;7.55;;
84101;SDS011;74198;51.618;8.334;2024-03-22T11:19:57;15.27;;;8.50;;
84101;SDS011;74198;51.618;8.334;2024-03-22T11:22:23;14.48;;;7.78;;
84101;SDS011;74198;51.618;8.334;2024-03-22T11:24:51;12.85;;;7.35;;
84101;SDS011;74198;51.618;8.334;2024-03-22T11:27:17;13.73;;;7.43;;
84101;SDS011;74198;51.618;8.334;2024-03-22T11:29:44;10.70;;;6.60;;
84101;SDS011;74198;51.618;8.334;2024-03-22T11:32:11;12.27;;;6.78;;
84101;SDS011;74198;51.618;8.334;2024-03-22T11:34:38;12.73;;;7.43;;
84101;SDS011;74198;51.618;8.334;2024-03-22T11:37:06;14.55;;;6.97;;
84101;SDS011;74198;51.618;8.334;2024-03-22T11:39:35;17.27;;;7.88;;
84101;SDS011;74198;51.618;8.334;2024-03-22T11:42:04;13.70;;;7.20;;
84101;SDS011;74198;51.618;8.334;2024-03-22T11:44:32;11.50;;;6.45;;
84101;SDS011;74198;51.618;8.334;2024-03-22T11:46:58;15.40;;;7.35;;
84101;SDS011;74198;51.618;8.334;2024-03-22T11:49:24;14.82;;;6.50;;
84101;SDS011;74198;51.618;8.334;2024-03-22T11:51:53;11.40;;;6.20;;
84101;SDS011;74198;51.618;8.334;2024-03-22T11:54:20;10.35;;;5.93;;
84101;SDS011;74198;51.618;8.334;2024-03-22T11:56:46;10.40;;;5.93;;
84101;SDS011;74198;51.618;8.334;2024-03-22T11:59:12;13.80;;;6.05;;
84101;SDS011;74198;51.618;8.334;2024-03-22T12:01:40;8.68;;;4.60;;
84101;SDS011;74198;51.618;8.334;2024-03-22T12:04:06;10.65;;;5.28;;
84101;SDS011;74198;51.618;8.334;2024-03-22T12:06:36;10.80;;;5.25;;
84101;SDS011;74198;51.618;8.334;2024-03-22T12:09:02;10.50;;;5.28;;
84101;SDS011;74198;51.618;8.334;2024-03-22T12:11:28;9.05;;;4.75;;
84101;SDS011;74198;51.618;8.334;2024-03-22T12:13:54;8.73;;;5.10;;
84101;SDS011;74198;51.618;8.334;2024-03-22T12:16:20;9.35;;;5.30;;
84101;SDS011;74198;51.618;8.334;2024-03-22T12:18:46;9.02;;;5.32;;
84101;SDS011;74198;51.618;8.334;2024-03-22T12:21:12;11.32;;;5.65;;
84101;SDS011;74198;51.618;8.334;2024-03-22T12:23:39;11.25;;;5.65;;
84101;SDS011;74198;51.618;8.334;2024-03-22T12:26:05;10.35;;;6.00;;
84101;SDS011;74198;51.618;8.334;2024-03-22T12:28:32;8.27;;;4.55;;
84101;SDS011;74198;51.618;8.334;2024-03-22T12:30:58;10.38;;;5.25;;
84101;SDS011;74198;51.618;8.334;2024-03-22T12:33:24;14.45;;;5.30;;
84101;SDS011;74198;51.618;8.334;2024-03-22T12:35:50;8.70;;;4.60;;
84101;SDS011;74198;51.618;8.334;2024-03-22T12:38:16;10.57;;;5.35;;
84101;SDS011;74198;51.618;8.334;2024-03-22T12:40:42;8.93;;;5.10;;
84101;SDS011;74198;51.618;8.334;2024-03-22T12:43:09;9.98;;;5.53;;
84101;SDS011;74198;51.618;8.334;2024-03-22T12:45:36;13.82;;;5.90;;
84101;SDS011;74198;51.618;8.334;2024-03-22T12:48:02;10.10;;;5.85;;
84101;SDS011;74198;51.618;8.334;2024-03-22T12:50:29;11.75;;;6.03;;
84101;SDS011;74198;51.618;8.334;2024-03-22T12:52:55;12.40;;;6.20;;
84101;SDS011;74198;51.618;8.334;2024-03-22T12:55:22;11.25;;;6.55;;
84101;SDS011;74198;51.618;8.334;2024-03-22T12:57:48;11.50;;;6.32;;
84101;SDS011;74198;51.618;8.334;2024-03-22T13:00:14;13.38;;;6.68;;
84101;SDS011;74198;51.618;8.334;2024-03-22T13:02:43;13.15;;;6.35;;
84101;SDS011;74198;51.618;8.334;2024-03-22T13:05:09;12.77;;;6.78;;
84101;SDS011;74198;51.618;8.334;2024-03-22T13:07:35;14.93;;;7.05;;
84101;SDS011;74198;51.618;8.334;2024-03-22T13:10:02;12.88;;;6.43;;
84101;SDS011;74198;51.618;8.334;2024-03-22T13:12:28;12.13;;;5.93;;
84101;SDS011;74198;51.618;8.334;2024-03-22T13:17:25;13.98;;;6.38;;
84101;SDS011;74198;51.618;8.334;2024-03-22T13:19:51;15.10;;;7.07;;
84101;SDS011;74198;51.618;8.334;2024-03-22T13:22:17;13.45;;;7.10;;
84101;SDS011;74198;51.618;8.334;2024-03-22T13:24:46;12.93;;;5.95;;
84101;SDS011;74198;51.618;8.334;2024-03-22T13:27:12;11.80;;;6.28;;
84101;SDS011;74198;51.618;8.334;2024-03-22T13:29:38;12.77;;;6.88;;
84101;SDS011;74198;51.618;8.334;2024-03-22T13:32:05;11.43;;;6.15;;
84101;SDS011;74198;51.618;8.334;2024-03-22T13:34:32;13.10;;;7.15;;
84101;SDS011;74198;51.618;8.334;2024-03-22T13:36:58;14.60;;;6.78;;
84101;SDS011;74198;51.618;8.334;2024-03-22T13:39:24;17.30;;;7.95;;
84101;SDS011;74198;51.618;8.334;2024-03-22T13:41:50;18.13;;;9.70;;
84101;SDS011;74198;51.618;8.334;2024-03-22T13:44:16;18.00;;;8.77;;
84101;SDS011;74198;51.618;8.334;2024-03-22T13:46:42;18.15;;;8.98;;
84101;SDS011;74198;51.618;8.334;2024-03-22T13:49:14;16.65;;;9.00;;
84101;SDS011;74198;51.618;8.334;2024-03-22T13:51:41;15.60;;;8.70;;
84101;SDS011;74198;51.618;8.334;2024-03-22T13:54:07;18.15;;;8.98;;
84101;SDS011;74198;51.618;8.334;2024-03-22T13:56:33;15.98;;;8.85;;
84101;SDS011;74198;51.618;8.334;2024-03-22T13:58:59;16.92;;;9.50;;
84101;SDS011;74198;51.618;8.334;2024-03-22T14:01:26;15.38;;;9.07;;
84101;SDS011;74198;51.618;8.334;2024-03-22T14:03:52;17.30;;;9.40;;
84101;SDS011;74198;51.618;8.334;2024-03-22T14:06:18;15.77;;;8.93;;
84101;SDS011;74198;51.618;8.334;2024-03-22T14:08:44;17.45;;;8.70;;
84101;SDS011;74198;51.618;8.334;2024-03-22T14:11:11;17.27;;;9.82;;
84101;SDS011;74198;51.618;8.334;2024-03-22T14:13:37;19.63;;;9.90;;
84101;SDS011;74198;51.618;8.334;2024-03-22T14:16:03;17.65;;;9.50;;
84101;SDS011;74198;51.618;8.334;2024-03-22T14:18:30;17.80;;;9.65;;
84101;SDS011;74198;51.618;8.334;2024-03-22T14:20:56;19.63;;;10.10;;
84101;SDS011;74198;51.618;8.334;2024-03-22T14:23:22;19.35;;;9.93;;
84101;SDS011;74198;51.618;8.334;2024-03-22T14:25:48;20.52;;;11.23;;
84101;SDS011;74198;51.618;8.334;2024-03-22T14:28:15;21.70;;;10.48;;
84101;SDS011;74198;51.618;8.334;2024-03-22T14:30:41;20.13;;;10.35;;